Time;durP1;ratioP1;P1;durP2;ratioP2;P2;SDS_P1;SDS_P2;PMS_P1;PMS_P2;Temp;Humidity;BMP_temperature;BMP_pressure;BME280_temperature;BME280_humidity;BME280_pressure;Samples;Min_cycle;Max_cycle;Signal;HPM_P1;HPM_P2
2023/03/22 00:00:35;;;;;;;1.42;1.20;;;;;;;7.83;100.00;92825.44;2125385;27;20031;-75
2023/03/22 00:01:36;;;;;;;1.30;1.20;;;;;;;7.75;100.00;92827.44;2113015;27;20422;-74
2023/03/22 00:02:37;;;;;;;1.58;1.30;;;;;;;7.64;100.00;92824.22;2114185;27;20122;-75
2023/03/22 00:03:39;;;;;;;1.50;1.13;;;;;;;7.56;100.00;92820.91;2113145;27;20133;-75
2023/03/22 00:04:41;;;;;;;1.20;1.10;;;;;;;7.55;100.00;92824.72;2106882;28;20024;-75
2023/03/22 00:05:42;;;;;;;2.83;1.20;;;;;;;7.42;100.00;92828.31;2118606;27;20028;-75
2023/03/22 00:06:44;;;;;;;2.13;1.20;;;;;;;7.32;100.00;92835.31;2120357;27;20080;-75
2023/03/22 00:07:48;;;;;;;2.30;1.23;;;;;;;7.42;100.00;92834.41;2113374;27;20045;-75
2023/03/22 00:08:52;;;;;;;2.78;1.00;;;;;;;7.43;100.00;92835.16;2113054;28;20127;-75
2023/03/22 00:09:53;;;;;;;3.08;1.10;;;;;;;7.38;100.00;92825.72;2110263;27;20496;-73
2023/03/22 00:10:54;;;;;;;2.33;1.02;;;;;;;7.25;100.00;92830.09;2122601;27;20023;-75
2023/03/22 00:11:55;;;;;;;1.92;1.20;;;;;;;7.19;100.00;92834.34;2130571;27;20050;-76
2023/03/22 00:12:56;;;;;;;1.88;1.20;;;;;;;7.00;100.00;92839.16;2127787;27;20475;-75
2023/03/22 00:13:58;;;;;;;1.80;1.33;;;;;;;6.96;100.00;92832.38;2123503;27;20114;-73
2023/03/22 00:14:59;;;;;;;2.53;1.00;;;;;;;6.93;100.00;92831.25;2125955;27;20114;-76
2023/03/22 00:16:01;;;;;;;2.08;1.10;;;;;;;6.86;100.00;92835.94;2133121;27;20062;-75
2023/03/22 00:17:02;;;;;;;2.15;1.02;;;;;;;6.77;100.00;92831.84;2121111;27;20034;-74
2023/03/22 00:18:04;;;;;;;3.10;1.00;;;;;;;6.74;100.00;92831.88;2121668;27;20031;-73
2023/03/22 00:19:05;;;;;;;2.97;1.08;;;;;;;6.63;100.00;92834.69;2125489;27;20121;-74
2023/03/22 00:20:07;;;;;;;2.17;1.85;;;;;;;6.62;100.00;92829.75;2130938;27;20029;-74
2023/03/22 00:21:16;;;;;;;2.60;1.20;;;;;;;6.59;100.00;92825.25;2131137;27;20046;-75
2023/03/22 00:22:18;;;;;;;1.40;1.00;;;;;;;6.56;100.00;92824.88;2131027;27;20035;-76
2023/03/22 00:23:20;;;;;;;2.40;1.08;;;;;;;6.57;100.00;92825.63;2130166;27;20030;-74
2023/03/22 00:24:22;;;;;;;1.10;1.00;;;;;;;6.48;100.00;92828.75;2116011;27;20085;-76
2023/03/22 00:25:23;;;;;;;1.40;1.10;;;;;;;6.48;100.00;92825.34;2107865;28;20044;-74
2023/03/22 00:26:24;;;;;;;2.25;1.10;;;;;;;6.42;100.00;92829.59;2113437;27;20081;-77
2023/03/22 00:27:25;;;;;;;1.30;1.20;;;;;;;6.39;100.00;92833.03;2109662;28;20024;-74
2023/03/22 00:28:26;;;;;;;2.17;1.08;;;;;;;6.43;100.00;92829.19;2108427;28;20028;-75
2023/03/22 00:29:27;;;;;;;3.72;1.55;;;;;;;6.40;100.00;92829.22;2113428;28;20051;-78
2023/03/22 00:30:30;;;;;;;2.70;1.10;;;;;;;6.40;100.00;92822.00;2113621;28;20038;-75
2023/03/22 00:31:31;;;;;;;4.05;1.27;;;;;;;6.24;100.00;92822.56;2112898;28;20043;-75
2023/03/22 00:32:38;;;;;;;1.17;1.00;;;;;;;6.14;100.00;92820.75;2109462;28;20031;-75
2023/03/22 00:33:41;;;;;;;1.83;1.10;;;;;;;6.09;100.00;92817.78;2119638;27;20027;-75
2023/03/22 00:34:42;;;;;;;2.35;1.10;;;;;;;6.01;100.00;92812.56;2130210;27;20031;-74
2023/03/22 00:35:56;;;;;;;0.82;0.82;;;;;;;6.35;100.00;92819.03;2131954;27;20474;-74
2023/03/22 00:36:58;;;;;;;1.95;1.10;;;;;;;6.13;100.00;92810.53;2123961;27;20026;-75
2023/03/22 00:38:04;;;;;;;2.05;1.27;;;;;;;6.23;100.00;92815.00;2117552;27;20039;-75
2023/03/22 00:39:06;;;;;;;1.88;0.93;;;;;;;6.10;100.00;92812.06;2118270;27;20492;-77
2023/03/22 00:40:11;;;;;;;1.80;0.95;;;;;;;5.95;100.00;92814.13;2121900;27;20027;-75
2023/03/22 00:41:25;;;;;;;1.10;1.00;;;;;;;5.75;100.00;92813.91;2118851;27;20054;-75
2023/03/22 00:42:26;;;;;;;1.17;0.95;;;;;;;5.71;100.00;92807.13;2116983;27;20035;-75
2023/03/22 00:43:27;;;;;;;3.17;1.15;;;;;;;5.62;100.00;92806.78;2115198;27;20046;-75
2023/03/22 00:44:28;;;;;;;1.42;1.05;;;;;;;5.62;100.00;92812.88;2126835;27;20031;-76
2023/03/22 00:45:29;;;;;;;0.90;0.90;;;;;;;5.55;100.00;92811.03;2126739;27;20023;-75
2023/03/22 00:46:30;;;;;;;2.20;1.23;;;;;;;5.50;100.00;92811.44;2126437;27;20422;-74
2023/03/22 00:47:32;;;;;;;2.53;1.10;;;;;;;5.49;100.00;92807.28;2125992;27;20359;-74
2023/03/22 00:48:33;;;;;;;1.17;1.10;;;;;;;5.44;100.00;92807.69;2113037;27;20828;-74
2023/03/22 00:49:36;;;;;;;2.55;1.10;;;;;;;5.43;100.00;92805.44;2120295;27;20035;-75
2023/03/22 00:50:38;;;;;;;1.85;1.15;;;;;;;5.32;100.00;92802.88;2121864;27;20039;-75
2023/03/22 00:51:39;;;;;;;1.65;1.00;;;;;;;5.40;100.00;92807.00;2121749;27;20050;-75
2023/03/22 00:52:40;;;;;;;1.48;1.10;;;;;;;5.38;100.00;92803.97;2126231;27;20027;-76
2023/03/22 00:53:42;;;;;;;3.00;1.10;;;;;;;5.44;100.00;92806.94;2120946;27;20035;-76
2023/03/22 00:54:43;;;;;;;1.10;1.00;;;;;;;5.36;100.00;92800.22;2111885;27;20063;-75
2023/03/22 00:55:45;;;;;;;1.45;1.25;;;;;;;5.25;100.00;92795.72;2120812;27;20645;-76
2023/03/22 00:56:48;;;;;;;2.75;1.23;;;;;;;5.29;100.00;92801.75;2126266;27;20532;-74
2023/03/22 00:57:50;;;;;;;1.92;1.20;;;;;;;5.09;100.00;92800.75;2125912;27;20039;-74
2023/03/22 00:58:52;;;;;;;2.88;1.50;;;;;;;5.07;100.00;92791.69;2121621;27;20035;-76
2023/03/22 00:59:54;;;;;;;3.17;1.17;;;;;;;5.08;100.00;92791.28;2112034;28;20436;-75
2023/03/22 01:00:55;;;;;;;4.43;1.42;;;;;;;5.05;100.00;92786.78;2119696;27;20397;-76
2023/03/22 01:01:57;;;;;;;2.53;1.13;;;;;;;5.00;100.00;92792.47;2129989;27;20027;-74
2023/03/22 01:03:02;;;;;;;1.10;1.00;;;;;;;4.94;100.00;92788.72;2121592;27;20031;-74
2023/03/22 01:04:05;;;;;;;1.95;1.15;;;;;;;4.83;100.00;92788.03;2105518;27;20032;-74
2023/03/22 01:05:07;;;;;;;2.50;1.05;;;;;;;4.84;100.00;92790.31;2111811;27;20110;-76
2023/03/22 01:06:09;;;;;;;1.90;1.20;;;;;;;4.73;100.00;92786.94;2121080;27;20534;-76
2023/03/22 01:07:16;;;;;;;2.30;1.20;;;;;;;4.68;100.00;92784.72;2115763;27;20558;-77
2023/03/22 01:08:17;;;;;;;1.75;1.30;;;;;;;4.86;100.00;92781.97;2118162;27;20057;-75
2023/03/22 01:09:22;;;;;;;1.73;1.20;;;;;;;4.71;100.00;92776.75;2124118;27;20035;-75
2023/03/22 01:10:23;;;;;;;1.30;1.20;;;;;;;4.66;100.00;92773.78;2130778;27;20034;-76
2023/03/22 01:11:25;;;;;;;1.90;1.10;;;;;;;4.62;100.00;92770.38;2125915;27;20027;-74
2023/03/22 01:12:26;;;;;;;3.05;1.75;;;;;;;4.77;100.00;92769.91;2123057;27;20388;-74
2023/03/22 01:13:28;;;;;;;3.55;1.10;;;;;;;4.62;100.00;92767.75;2128533;27;20019;-75
2023/03/22 01:14:30;;;;;;;1.25;1.15;;;;;;;4.46;100.00;92768.19;2123176;27;20421;-74
2023/03/22 01:15:32;;;;;;;1.98;1.15;;;;;;;4.44;100.00;92770.47;2118597;27;20020;-74
2023/03/22 01:16:35;;;;;;;1.58;1.05;;;;;;;4.33;100.00;92773.13;2106798;27;20394;-74
2023/03/22 01:17:36;;;;;;;2.70;1.27;;;;;;;4.38;100.00;92772.75;2123526;27;20111;-75
2023/03/22 01:18:37;;;;;;;1.27;1.00;;;;;;;4.38;100.00;92767.44;2118328;27;20050;-76
2023/03/22 01:19:38;;;;;;;1.88;1.00;;;;;;;4.35;100.00;92770.13;2129677;27;20203;-75
2023/03/22 01:20:39;;;;;;;1.90;1.10;;;;;;;4.29;100.00;92775.03;2125937;27;20546;-74
2023/03/22 01:21:41;;;;;;;1.42;1.10;;;;;;;4.25;100.00;92771.66;2125779;27;20049;-74
2023/03/22 01:22:42;;;;;;;1.63;1.15;;;;;;;4.19;100.00;92775.84;2130335;27;20031;-76
2023/03/22 01:23:43;;;;;;;1.48;1.10;;;;;;;4.15;100.00;92777.75;2121393;27;20098;-73
2023/03/22 01:24:45;;;;;;;1.48;1.10;;;;;;;4.20;100.00;92772.06;2121393;27;20469;-76
2023/03/22 01:25:46;;;;;;;1.85;1.15;;;;;;;4.21;100.00;92768.28;2122545;27;20598;-76
2023/03/22 01:26:48;;;;;;;1.05;0.95;;;;;;;4.29;100.00;92764.47;2112575;28;20393;-75
2023/03/22 01:27:49;;;;;;;2.10;1.38;;;;;;;4.22;100.00;92764.50;2121268;27;20023;-74
2023/03/22 01:28:50;;;;;;;1.10;1.00;;;;;;;4.31;100.00;92770.13;2121697;27;20566;-77
2023/03/22 01:29:51;;;;;;;1.92;1.15;;;;;;;4.20;100.00;92759.59;2121513;27;20480;-75
2023/03/22 01:30:53;;;;;;;1.30;1.20;;;;;;;4.13;100.00;92764.16;2123134;27;20031;-75
2023/03/22 01:31:54;;;;;;;1.17;1.08;;;;;;;4.05;100.00;92766.06;2126130;27;20512;-75
2023/03/22 01:32:55;;;;;;;3.13;1.25;;;;;;;4.11;100.00;92753.19;2126650;27;20452;-75
2023/03/22 01:33:56;;;;;;;1.88;1.10;;;;;;;4.04;100.00;92770.59;2126020;27;20423;-75
2023/03/22 01:34:57;;;;;;;2.00;1.20;;;;;;;4.04;100.00;92759.28;2125934;27;20023;-76
2023/03/22 01:35:58;;;;;;;6.38;1.23;;;;;;;3.96;100.00;92758.53;2124211;27;20030;-75
2023/03/22 01:36:59;;;;;;;1.63;1.00;;;;;;;3.92;100.00;92762.31;2120555;27;20062;-75
2023/03/22 01:38:00;;;;;;;1.88;1.20;;;;;;;3.85;100.00;92760.44;2121325;27;20054;-77
2023/03/22 01:39:03;;;;;;;1.40;1.30;;;;;;;3.82;100.00;92755.94;2130938;27;20022;-78
2023/03/22 01:40:05;;;;;;;2.08;1.05;;;;;;;3.75;100.00;92761.97;2130850;27;20121;-76
2023/03/22 01:41:06;;;;;;;3.60;1.15;;;;;;;3.82;100.00;92763.09;2130474;27;20039;-75
2023/03/22 01:42:13;;;;;;;2.45;1.30;;;;;;;3.75;100.00;92759.34;2129983;27;20058;-75
2023/03/22 01:43:15;;;;;;;2.13;1.42;;;;;;;3.73;100.00;92761.63;2130272;27;20026;-75
2023/03/22 01:44:19;;;;;;;2.58;1.15;;;;;;;3.70;100.00;92757.09;2120993;27;20127;-75
2023/03/22 01:45:29;;;;;;;2.08;1.30;;;;;;;3.68;100.00;92763.88;2112976;27;20031;-75
2023/03/22 01:46:31;;;;;;;2.13;1.02;;;;;;;3.65;100.00;92756.72;2118263;27;20501;-77
2023/03/22 01:47:34;;;;;;;1.35;1.10;;;;;;;3.50;100.00;92762.00;2130586;27;20537;-75
2023/03/22 01:48:44;;;;;;;2.20;1.20;;;;;;;3.54;100.00;92760.13;2126223;27;20082;-75
2023/03/22 01:49:45;;;;;;;1.55;1.10;;;;;;;3.54;100.00;92762.75;2121300;27;20023;-75
2023/03/22 01:51:09;;;;;;;2.45;1.13;;;;;;;3.46;100.00;92755.22;2121635;27;20416;-75
2023/03/22 01:52:13;;;;;;;2.60;1.23;;;;;;;3.48;100.00;92750.31;2117992;27;20113;-76
2023/03/22 01:53:17;;;;;;;2.90;1.35;;;;;;;3.43;100.00;92753.34;2113338;27;20036;-76
2023/03/22 01:54:28;;;;;;;1.58;0.93;;;;;;;3.43;100.00;92751.47;2121182;27;20045;-74
2023/03/22 01:55:32;;;;;;;2.72;1.23;;;;;;;3.44;100.00;92752.22;2120817;27;20106;-74
2023/03/22 01:56:36;;;;;;;4.60;1.30;;;;;;;3.39;100.00;92749.97;2117202;27;20110;-75
2023/03/22 01:57:40;;;;;;;1.55;1.30;;;;;;;3.37;100.00;92745.03;2130414;27;20109;-76
2023/03/22 01:58:41;;;;;;;3.58;1.30;;;;;;;3.37;100.00;92755.59;2130711;27;20117;-75
2023/03/22 01:59:43;;;;;;;1.73;1.20;;;;;;;3.39;100.00;92747.31;2121492;27;20125;-77
2023/03/22 02:00:47;;;;;;;2.92;1.10;;;;;;;3.39;100.00;92745.44;2113105;28;20031;-75
2023/03/22 02:01:48;;;;;;;2.75;1.27;;;;;;;3.43;100.00;92750.72;2112480;27;20027;-77
2023/03/22 02:02:51;;;;;;;1.50;1.15;;;;;;;3.42;100.00;92752.56;2120933;27;20034;-76
2023/03/22 02:04:14;;;;;;;3.47;1.30;;;;;;;3.44;100.00;92752.22;2120921;27;20023;-77
2023/03/22 02:05:16;;;;;;;1.83;1.15;;;;;;;3.43;100.00;92754.09;2118288;27;20034;-78
2023/03/22 02:06:19;;;;;;;3.05;1.20;;;;;;;3.40;100.00;92757.50;2117285;27;20031;-77
2023/03/22 02:07:25;;;;;;;1.55;1.30;;;;;;;3.35;100.00;92747.31;2119931;27;20031;-76
2023/03/22 02:08:27;;;;;;;2.60;1.20;;;;;;;3.40;100.00;92746.94;2121642;27;20371;-78
2023/03/22 02:09:29;;;;;;;1.40;1.10;;;;;;;3.38;100.00;92748.44;2130419;27;20523;-75
2023/03/22 02:10:30;;;;;;;3.20;1.33;;;;;;;3.31;100.00;92745.81;2130723;27;20114;-75
2023/03/22 02:11:40;;;;;;;1.60;1.30;;;;;;;3.30;100.00;92744.31;2130169;27;20048;-77
2023/03/22 02:13:07;;;;;;;1.73;1.10;;;;;;;3.31;100.00;92749.19;2127597;27;20037;-75
2023/03/22 02:14:29;;;;;;;2.70;1.40;;;;;;;3.28;100.00;92750.69;2102000;27;20573;-76
2023/03/22 02:15:46;;;;;;;2.35;1.10;;;;;;;3.27;100.00;92748.44;2106542;28;20485;-77
2023/03/22 02:17:02;;;;;;;4.10;1.30;;;;;;;3.25;100.00;92737.53;2114668;27;20895;-76
2023/03/22 02:18:39;;;;;;;2.65;1.20;;;;;;;3.21;100.00;92747.31;2126652;27;20380;-77
2023/03/22 02:20:21;;;;;;;1.35;0.95;;;;;;;3.25;100.00;92748.09;2088608;28;20193;-76
2023/03/22 02:21:50;;;;;;;2.72;1.25;;;;;;;3.48;100.00;92743.16;2118211;27;20109;-75
2023/03/22 02:22:57;;;;;;;2.47;1.35;;;;;;;3.22;100.00;92759.41;2123671;27;20069;-75
2023/03/22 02:24:01;;;;;;;1.10;1.00;;;;;;;3.12;100.00;92755.63;2129882;27;20058;-75
2023/03/22 02:25:34;;;;;;;2.03;1.10;;;;;;;2.92;100.00;92749.94;2128769;27;20345;-75
2023/03/22 02:27:10;;;;;;;3.42;1.23;;;;;;;2.89;100.00;92753.31;2128929;27;20035;-75
2023/03/22 02:28:20;;;;;;;1.35;1.10;;;;;;;2.85;100.00;92742.00;2128253;27;20575;-75
2023/03/22 02:29:34;;;;;;;;;;;;;;;2.82;100.00;92745.41;2120819;28;20037;-76
2023/03/22 02:30:57;;;;;;;1.20;1.10;;;;;;;3.02;100.00;92746.53;2110443;28;19920;-76
2023/03/22 02:32:20;;;;;;;2.22;1.25;;;;;;;2.96;100.00;92748.06;2123974;27;20049;-75
2023/03/22 02:33:24;;;;;;;2.17;1.27;;;;;;;2.85;100.00;92744.66;2118857;28;20137;-75
2023/03/22 02:34:52;;;;;;;2.25;1.25;;;;;;;2.78;100.00;92745.41;2120903;27;20042;-77
2023/03/22 02:36:34;;;;;;;1.50;1.30;;;;;;;2.68;100.00;92742.75;2114750;28;20559;-75
2023/03/22 02:37:59;;;;;;;2.70;1.20;;;;;;;2.69;100.00;92733.72;2125471;27;20030;-75
2023/03/22 02:39:08;;;;;;;1.80;1.20;;;;;;;2.62;100.00;92738.97;2114178;28;20031;-76
2023/03/22 02:40:24;;;;;;;1.33;1.10;;;;;;;2.66;100.00;92734.44;2115226;27;20032;-75
2023/03/22 02:41:55;;;;;;;1.45;1.10;;;;;;;2.76;100.00;92733.69;2130897;27;20034;-77
2023/03/22 02:43:11;;;;;;;1.45;1.20;;;;;;;2.71;100.00;92731.44;2130849;27;20026;-77
2023/03/22 02:44:36;;;;;;;2.53;1.20;;;;;;;2.55;100.00;92733.66;2118802;28;20034;-76
2023/03/22 02:45:47;;;;;;;1.73;1.10;;;;;;;2.57;100.00;92732.16;2120375;27;20031;-75
2023/03/22 02:47:01;;;;;;;2.50;1.10;;;;;;;2.57;100.00;92731.41;2130174;27;20030;-75
2023/03/22 02:48:29;;;;;;;1.40;1.25;;;;;;;2.56;100.00;92728.03;2129828;27;20418;-77
2023/03/22 02:49:37;;;;;;;2.72;1.20;;;;;;;2.51;100.00;92742.34;2116703;27;20042;-76
2023/03/22 02:50:44;;;;;;;3.78;1.27;;;;;;;2.39;100.00;92739.28;2117174;28;20805;-75
2023/03/22 02:51:51;;;;;;;2.58;1.20;;;;;;;2.36;100.00;92740.03;2113223;28;20032;-75
2023/03/22 02:53:00;;;;;;;1.33;1.23;;;;;;;2.33;100.00;92735.50;2113619;28;20118;-76
2023/03/22 02:54:11;;;;;;;2.58;1.33;;;;;;;2.39;100.00;92734.78;2113292;28;20405;-75
2023/03/22 02:55:17;;;;;;;1.27;1.05;;;;;;;2.36;100.00;92740.78;2118044;27;20118;-78
2023/03/22 02:56:24;;;;;;;2.38;1.20;;;;;;;2.30;100.00;92736.25;2127683;27;20396;-76
2023/03/22 02:57:37;;;;;;;1.88;1.20;;;;;;;2.17;100.00;92733.19;2130413;27;20446;-76
2023/03/22 02:58:45;;;;;;;5.22;1.30;;;;;;;2.08;100.00;92732.78;2130187;27;20058;-75
2023/03/22 02:59:51;;;;;;;2.60;1.30;;;;;;;2.06;100.00;92740.28;2130379;27;20091;-76
2023/03/22 03:00:58;;;;;;;1.10;1.00;;;;;;;2.09;100.00;92734.28;2121123;28;20034;-77
2023/03/22 03:02:03;;;;;;;4.57;1.35;;;;;;;2.34;100.00;92735.13;2110050;28;20028;-78
2023/03/22 03:03:11;;;;;;;1.90;1.25;;;;;;;2.36;100.00;92732.88;2108296;28;20035;-76
2023/03/22 03:04:18;;;;;;;2.15;1.10;;;;;;;2.29;100.00;92738.13;2112810;28;20088;-76
2023/03/22 03:05:23;;;;;;;3.30;1.33;;;;;;;2.21;100.00;92740.00;2104584;28;20032;-76
2023/03/22 03:06:29;;;;;;;2.42;1.40;;;;;;;2.14;100.00;92734.69;2106222;28;20040;-76
2023/03/22 03:07:31;;;;;;;2.67;1.20;;;;;;;2.37;100.00;92730.97;2129686;27;20042;-76
2023/03/22 03:08:36;;;;;;;2.50;1.10;;;;;;;2.32;100.00;92729.47;2120196;28;20120;-76
2023/03/22 03:09:40;;;;;;;1.38;1.10;;;;;;;2.27;100.00;92730.59;2107238;28;20053;-77
2023/03/22 03:10:43;;;;;;;1.80;1.17;;;;;;;2.17;100.00;92736.59;2103532;28;20464;-76
2023/03/22 03:11:47;;;;;;;3.28;1.17;;;;;;;2.36;100.00;92740.03;2103744;27;20036;-77
2023/03/22 03:12:48;;;;;;;1.55;1.45;;;;;;;2.22;100.00;92741.50;2111880;28;20020;-75
2023/03/22 03:13:49;;;;;;;1.20;1.10;;;;;;;2.17;100.00;92726.03;2120998;27;20049;-78
2023/03/22 03:14:51;;;;;;;3.42;1.85;;;;;;;2.04;100.00;92730.13;2130186;27;20062;-76
2023/03/22 03:15:58;;;;;;;2.35;1.23;;;;;;;2.00;100.00;92726.72;2129885;27;20075;-77
2023/03/22 03:17:24;;;;;;;2.10;1.30;;;;;;;1.95;100.00;92740.25;2129794;27;20054;-78
2023/03/22 03:18:56;;;;;;;1.50;1.00;;;;;;;1.90;100.00;92735.34;2116477;28;20782;-75
2023/03/22 03:20:23;;;;;;;2.72;1.20;;;;;;;1.97;100.00;92733.47;2125408;27;20046;-75
2023/03/22 03:21:31;;;;;;;2.05;1.20;;;;;;;1.98;100.00;92734.25;2121323;28;20394;-75
2023/03/22 03:22:52;;;;;;;1.63;1.13;;;;;;;1.96;100.00;92736.50;2123007;27;20038;-75
2023/03/22 03:24:04;;;;;;;1.65;1.20;;;;;;;1.82;100.00;92741.72;2131963;27;20421;-75
2023/03/22 03:25:12;;;;;;;2.42;1.30;;;;;;;1.84;100.00;92745.47;2127550;27;20110;-75
2023/03/22 03:26:21;;;;;;;2.10;1.05;;;;;;;1.88;100.00;92743.63;2122222;27;20115;-77
2023/03/22 03:27:37;;;;;;;1.80;1.27;;;;;;;1.85;100.00;92744.38;2112715;28;20040;-75
2023/03/22 03:28:58;;;;;;;1.33;1.20;;;;;;;1.96;100.00;92736.50;2115837;27;20114;-78
2023/03/22 03:30:03;;;;;;;1.85;1.17;;;;;;;1.88;100.00;92740.22;2126096;27;20465;-77
2023/03/22 03:31:14;;;;;;;2.72;1.40;;;;;;;1.76;100.00;92743.94;2110231;28;20114;-79
2023/03/22 03:32:24;;;;;;;1.95;1.00;;;;;;;1.69;100.00;92747.28;2108534;27;20039;-79
2023/03/22 03:33:26;;;;;;;2.55;1.02;;;;;;;1.67;100.00;92744.28;2114639;27;20178;-78
2023/03/22 03:34:51;;;;;;;5.05;1.23;;;;;;;1.76;100.00;92743.94;2122254;27;20117;-78
2023/03/22 03:36:04;;;;;;;1.95;1.17;;;;;;;1.70;100.00;92750.69;2129900;27;20113;-75
2023/03/22 03:37:10;;;;;;;2.92;1.08;;;;;;;1.71;100.00;92739.78;2117483;27;20027;-77
2023/03/22 03:38:17;;;;;;;2.22;1.05;;;;;;;1.75;100.00;92750.31;2114283;27;20056;-75
2023/03/22 03:39:19;;;;;;;1.95;1.00;;;;;;;1.71;100.00;92744.28;2128300;27;20528;-75
2023/03/22 03:40:32;;;;;;;1.20;1.10;;;;;;;1.92;100.00;92747.03;2124525;27;20031;-75
2023/03/22 03:41:35;;;;;;;2.53;1.23;;;;;;;1.89;100.00;92744.38;2119578;27;20157;-78
2023/03/22 03:42:42;;;;;;;2.10;1.23;;;;;;;1.82;100.00;92747.72;2134184;27;20515;-76
2023/03/22 03:43:45;;;;;;;5.13;1.30;;;;;;;1.89;100.00;92745.16;2131019;27;20023;-75
2023/03/22 03:44:47;;;;;;;1.40;1.10;;;;;;;1.82;100.00;92750.38;2122868;27;20125;-77
2023/03/22 03:45:49;;;;;;;2.35;1.10;;;;;;;1.86;100.00;92751.16;2126431;27;20113;-75
2023/03/22 03:46:51;;;;;;;1.73;1.20;;;;;;;1.77;100.00;92753.34;2126026;27;20026;-78
2023/03/22 03:47:58;;;;;;;2.20;1.10;;;;;;;1.77;100.00;92745.44;2130031;27;20106;-75
2023/03/22 03:49:02;;;;;;;3.83;1.20;;;;;;;1.63;100.00;92745.38;2131496;27;20031;-76
2023/03/22 03:50:05;;;;;;;2.45;1.33;;;;;;;1.60;100.00;92749.50;2118246;27;20027;-76
2023/03/22 03:51:06;;;;;;;3.67;1.15;;;;;;;1.59;100.00;92753.25;2090500;27;20488;-76
2023/03/22 03:52:07;;;;;;;2.25;1.45;;;;;;;1.63;100.00;92748.78;2118290;27;20083;-76
2023/03/22 03:53:09;;;;;;;2.97;1.23;;;;;;;1.63;100.00;92751.41;2131493;27;20384;-77
2023/03/22 03:54:10;;;;;;;3.13;1.20;;;;;;;1.63;100.00;92746.13;2121684;27;20535;-77
2023/03/22 03:55:11;;;;;;;4.03;1.20;;;;;;;1.72;100.00;92751.81;2122608;27;20035;-75
2023/03/22 03:56:13;;;;;;;2.22;1.15;;;;;;;1.65;100.00;92751.78;2126077;27;20066;-76
2023/03/22 03:57:15;;;;;;;1.50;1.15;;;;;;;1.59;100.00;92750.63;2131416;27;20530;-79
2023/03/22 03:58:16;;;;;;;3.53;1.27;;;;;;;1.58;100.00;92750.97;2124829;27;20053;-76
2023/03/22 03:59:19;;;;;;;2.85;1.58;;;;;;;1.54;100.00;92753.59;2129053;27;20034;-76
2023/03/22 04:00:21;;;;;;;4.32;1.05;;;;;;;1.52;100.00;92756.59;2130389;27;20089;-77
2023/03/22 04:01:22;;;;;;;2.00;1.15;;;;;;;1.58;100.00;92751.75;2122320;27;20560;-76
2023/03/22 04:02:24;;;;;;;3.40;1.25;;;;;;;1.63;100.00;92748.03;2125753;27;20045;-77
2023/03/22 04:03:25;;;;;;;2.55;1.50;;;;;;;1.58;100.00;92749.13;2127373;27;20100;-77
2023/03/22 04:04:28;;;;;;;2.88;1.30;;;;;;;1.58;100.00;92749.13;2114832;27;20420;-77
2023/03/22 04:05:29;;;;;;;2.35;1.23;;;;;;;1.57;100.00;92750.22;2126003;27;20094;-76
2023/03/22 04:06:33;;;;;;;5.03;1.13;;;;;;;1.57;100.00;92752.09;2126116;27;20761;-76
2023/03/22 04:07:34;;;;;;;3.65;1.33;;;;;;;1.57;100.00;92744.94;2105173;28;20569;-76
2023/03/22 04:08:36;;;;;;;2.97;1.25;;;;;;;1.57;100.00;92744.19;2114973;27;20063;-76
2023/03/22 04:09:39;;;;;;;3.83;1.40;;;;;;;1.49;100.00;92749.44;2128974;27;20027;-75
2023/03/22 04:10:40;;;;;;;4.15;1.35;;;;;;;1.50;100.00;92748.31;2121512;27;20185;-76
2023/03/22 04:11:41;;;;;;;3.45;1.40;;;;;;;1.54;100.00;92755.47;2117539;27;20042;-78
2023/03/22 04:12:43;;;;;;;2.92;1.65;;;;;;;1.52;100.00;92750.56;2123107;27;20050;-75
2023/03/22 04:13:44;;;;;;;1.25;1.05;;;;;;;1.51;100.00;92749.81;2126591;27;20114;-77
2023/03/22 04:14:48;;;;;;;2.80;1.92;;;;;;;1.50;100.00;92748.31;2130879;27;20427;-79
2023/03/22 04:15:54;;;;;;;1.63;1.35;;;;;;;1.51;100.00;92749.06;2132542;27;20630;-76
2023/03/22 04:16:55;;;;;;;3.00;1.38;;;;;;;1.42;100.00;92752.03;2132055;27;20038;-78
2023/03/22 04:17:56;;;;;;;4.93;1.25;;;;;;;1.39;100.00;92750.13;2131706;27;20402;-76
2023/03/22 04:18:57;;;;;;;6.60;1.85;;;;;;;1.38;100.00;92751.25;2126140;27;20118;-76
2023/03/22 04:20:01;;;;;;;2.90;1.40;;;;;;;1.40;100.00;92746.34;2113088;28;20501;-77
2023/03/22 04:21:04;;;;;;;2.42;1.10;;;;;;;1.79;100.00;92748.47;2106141;27;20055;-76
2023/03/22 04:22:05;;;;;;;2.38;1.30;;;;;;;1.62;100.00;92744.59;2118999;27;20031;-76
2023/03/22 04:23:09;;;;;;;2.75;1.30;;;;;;;1.54;100.00;92750.97;2131166;27;20019;-76
2023/03/22 04:24:11;;;;;;;2.90;1.50;;;;;;;1.36;100.00;92742.97;2131052;27;20390;-78
2023/03/22 04:25:16;;;;;;;2.17;1.20;;;;;;;1.37;100.00;92746.34;2125995;27;20080;-75
2023/03/22 04:26:17;;;;;;;2.35;1.30;;;;;;;1.40;100.00;92745.59;2123866;27;20429;-78
2023/03/22 04:27:20;;;;;;;2.42;1.20;;;;;;;1.38;100.00;92743.34;2119062;27;20031;-75
2023/03/22 04:28:22;;;;;;;3.58;1.50;;;;;;;1.26;100.00;92749.66;2107608;28;20040;-75
2023/03/22 04:29:23;;;;;;;3.03;1.23;;;;;;;1.22;100.00;92743.59;2124410;27;20370;-76
2023/03/22 04:30:26;;;;;;;2.35;1.10;;;;;;;1.21;100.00;92743.97;2131433;27;20071;-76
2023/03/22 04:31:28;;;;;;;3.85;1.17;;;;;;;1.23;100.00;92741.75;2137181;27;20037;-75
2023/03/22 04:32:29;;;;;;;2.47;1.40;;;;;;;1.19;100.00;92739.09;2131993;27;20030;-76
2023/03/22 04:33:31;;;;;;;4.70;1.60;;;;;;;1.19;100.00;92738.34;2126286;27;20030;-75
2023/03/22 04:34:34;;;;;;;4.88;1.30;;;;;;;1.12;100.00;92733.75;2117680;27;20024;-77
2023/03/22 04:35:35;;;;;;;2.45;1.20;;;;;;;1.06;100.00;92745.75;2112168;27;20074;-76
2023/03/22 04:36:38;;;;;;;3.92;1.25;;;;;;;1.08;100.00;92745.38;2125758;27;20030;-77
2023/03/22 04:37:40;;;;;;;5.07;1.60;;;;;;;1.10;100.00;92737.88;2130760;27;20038;-75
2023/03/22 04:38:42;;;;;;;3.47;1.60;;;;;;;1.11;100.00;92736.75;2131489;27;20046;-75
2023/03/22 04:39:44;;;;;;;4.28;1.55;;;;;;;1.10;100.00;92740.50;2113795;27;20036;-75
2023/03/22 04:40:45;;;;;;;2.05;1.20;;;;;;;1.07;100.00;92739.38;2109910;27;20036;-75
2023/03/22 04:41:46;;;;;;;2.30;1.35;;;;;;;1.12;100.00;92743.53;2121912;27;20058;-76
2023/03/22 04:42:47;;;;;;;5.13;1.30;;;;;;;1.11;100.00;92737.53;2105126;28;20089;-76
2023/03/22 04:43:49;;;;;;;4.15;1.25;;;;;;;1.13;100.00;92732.63;2109761;28;20458;-77
2023/03/22 04:44:51;;;;;;;3.22;1.23;;;;;;;1.13;100.00;92731.88;2131919;27;20057;-76
2023/03/22 04:45:53;;;;;;;2.28;1.40;;;;;;;1.12;100.00;92733.00;2117608;27;20038;-77
2023/03/22 04:46:54;;;;;;;1.98;1.27;;;;;;;1.14;100.00;92728.91;2111926;28;20433;-77
2023/03/22 04:47:55;;;;;;;1.92;1.30;;;;;;;1.14;100.00;92731.53;2103636;28;20037;-75
2023/03/22 04:48:56;;;;;;;3.15;1.27;;;;;;;1.17;100.00;92725.53;2104045;28;20033;-75
2023/03/22 04:49:57;;;;;;;2.17;1.20;;;;;;;1.14;100.00;92730.75;2114164;28;20027;-75
2023/03/22 04:51:02;;;;;;;4.30;1.40;;;;;;;1.09;100.00;92731.09;2123105;27;20031;-77
2023/03/22 04:52:03;;;;;;;2.83;1.30;;;;;;;1.10;100.00;92728.13;2115015;27;20039;-76
2023/03/22 04:53:05;;;;;;;2.38;1.17;;;;;;;1.05;100.00;92723.16;2124701;27;20019;-76
2023/03/22 04:54:06;;;;;;;1.85;1.40;;;;;;;1.11;100.00;92727.00;2127297;27;20458;-75
2023/03/22 04:55:08;;;;;;;6.80;1.42;;;;;;;1.18;100.00;92731.53;2121610;28;20024;-76
2023/03/22 04:56:11;;;;;;;1.63;1.20;;;;;;;1.16;100.00;92724.00;2107269;28;20100;-76
2023/03/22 04:57:12;;;;;;;1.35;1.10;;;;;;;1.10;100.00;92725.50;2108706;28;20039;-76
2023/03/22 04:58:15;;;;;;;2.35;1.25;;;;;;;1.10;100.00;92727.34;2126166;27;20026;-77
2023/03/22 04:59:19;;;;;;;1.95;1.38;;;;;;;1.12;100.00;92736.38;2148115;27;20022;-77
2023/03/22 05:00:20;;;;;;;1.45;1.00;;;;;;;1.08;100.00;92732.97;2125721;27;20040;-77
2023/03/22 05:01:21;;;;;;;3.53;1.60;;;;;;;1.12;100.00;92730.38;2127536;27;20027;-75
2023/03/22 05:02:22;;;;;;;1.23;1.13;;;;;;;1.16;100.00;92734.53;2137020;27;20019;-76
2023/03/22 05:03:23;;;;;;;2.10;1.30;;;;;;;1.27;100.00;92726.72;2140449;27;20055;-76
2023/03/22 05:04:26;;;;;;;2.47;1.10;;;;;;;1.34;100.00;92724.13;2133360;27;20021;-76
2023/03/22 05:05:27;;;;;;;5.97;1.38;;;;;;;1.34;100.00;92729.41;2128059;27;20195;-74
2023/03/22 05:06:31;;;;;;;4.20;1.40;;;;;;;1.19;100.00;92731.19;2126622;27;20431;-76
2023/03/22 05:07:32;;;;;;;2.50;1.40;;;;;;;1.18;100.00;92727.03;2133251;27;20042;-75
2023/03/22 05:08:34;;;;;;;1.65;1.30;;;;;;;1.12;100.00;92725.88;2121411;27;20492;-76